sensor_id;sensor_type;location;lat;lon;timestamp;pressure;altitude;pressure_sealevel;temperature;humidity
25232;BME280;13176;51.140;6.290;2023-02-10T00:01:26;102877.50;;;7.31;70.13
25232;BME280;13176;51.140;6.290;2023-02-10T00:03:53;102850.81;;;7.10;70.07
25232;BME280;13176;51.140;6.290;2023-02-10T00:06:21;102854.84;;;7.02;70.60
25232;BME280;13176;51.140;6.290;2023-02-10T00:08:51;102767.84;;;6.63;70.63
25232;BME280;13176;51.140;6.290;2023-02-10T00:11:19;102725.50;;;6.39;70.64
25232;BME280;13176;51.140;6.290;2023-02-10T00:13:45;102857.78;;;7.11;71.25
25232;BME280;13176;51.140;6.290;2023-02-10T00:16:14;102889.97;;;7.41;70.87
25232;BME280;13176;51.140;6.290;2023-02-10T00:18:41;102900.16;;;7.35;70.90
25232;BME280;13176;51.140;6.290;2023-02-10T00:21:16;102866.50;;;7.13;70.51
25232;BME280;13176;51.140;6.290;2023-02-10T00:23:43;102885.47;;;7.35;70.37
25232;BME280;13176;51.140;6.290;2023-02-10T00:26:12;102903.22;;;7.48;70.31
25232;BME280;13176;51.140;6.290;2023-02-10T00:28:39;102865.34;;;7.30;70.26
25232;BME280;13176;51.140;6.290;2023-02-10T00:31:06;102822.06;;;7.04;69.98
25232;BME280;13176;51.140;6.290;2023-02-10T00:33:33;102890.41;;;7.53;70.19
25232;BME280;13176;51.140;6.290;2023-02-10T00:36:06;102752.38;;;6.66;70.62
25232;BME280;13176;51.140;6.290;2023-02-10T00:38:33;102895.59;;;7.53;70.75
25232;BME280;13176;51.140;6.290;2023-02-10T00:41:19;102790.44;;;6.90;70.22
25232;BME280;13176;51.140;6.290;2023-02-10T00:43:46;102775.81;;;6.92;70.53
25232;BME280;13176;51.140;6.290;2023-02-10T00:46:14;102880.53;;;7.43;70.58
25232;BME280;13176;51.140;6.290;2023-02-10T00:48:42;102869.94;;;7.37;70.03
25232;BME280;13176;51.140;6.290;2023-02-10T00:51:09;102879.81;;;7.47;69.86
25232;BME280;13176;51.140;6.290;2023-02-10T00:53:36;102840.16;;;7.26;69.47
25232;BME280;13176;51.140;6.290;2023-02-10T00:56:03;102909.03;;;7.66;70.00
25232;BME280;13176;51.140;6.290;2023-02-10T00:58:29;102842.91;;;7.32;69.79
25232;BME280;13176;51.140;6.290;2023-02-10T01:00:56;102901.22;;;7.65;69.94
25232;BME280;13176;51.140;6.290;2023-02-10T01:03:23;102769.31;;;6.80;70.27
25232;BME280;13176;51.140;6.290;2023-02-10T01:05:49;102858.22;;;7.23;70.75
25232;BME280;13176;51.140;6.290;2023-02-10T01:08:16;102895.38;;;7.47;70.41
25232;BME280;13176;51.140;6.290;2023-02-10T01:10:43;102848.00;;;7.29;69.67
25232;BME280;13176;51.140;6.290;2023-02-10T01:13:11;102870.09;;;7.41;69.79
25232;BME280;13176;51.140;6.290;2023-02-10T01:15:45;102907.75;;;7.54;70.55
25232;BME280;13176;51.140;6.290;2023-02-10T01:18:13;102877.16;;;7.45;70.39
25232;BME280;13176;51.140;6.290;2023-02-10T01:20:41;102909.78;;;7.62;70.53
25232;BME280;13176;51.140;6.290;2023-02-10T01:23:09;102908.06;;;7.63;70.43
25232;BME280;13176;51.140;6.290;2023-02-10T01:25:36;102922.75;;;7.62;70.68
25232;BME280;13176;51.140;6.290;2023-02-10T01:28:04;102918.84;;;7.75;70.44
25232;BME280;13176;51.140;6.290;2023-02-10T01:30:31;102911.69;;;7.68;70.44
25232;BME280;13176;51.140;6.290;2023-02-10T01:32:57;102904.81;;;7.70;70.29
25232;BME280;13176;51.140;6.290;2023-02-10T01:35:24;102813.63;;;7.09;70.63
25232;BME280;13176;51.140;6.290;2023-02-10T01:37:50;102821.66;;;7.17;70.67
25232;BME280;13176;51.140;6.290;2023-02-10T01:40:17;102910.03;;;7.70;70.57
25232;BME280;13176;51.140;6.290;2023-02-10T01:42:43;102789.22;;;7.04;70.54
25232;BME280;13176;51.140;6.290;2023-02-10T01:45:17;102934.75;;;7.84;70.60
25232;BME280;13176;51.140;6.290;2023-02-10T01:47:47;102911.19;;;7.53;71.12
25232;BME280;13176;51.140;6.290;2023-02-10T01:50:15;102900.44;;;7.42;71.65
25232;BME280;13176;51.140;6.290;2023-02-10T01:52:43;102883.19;;;7.44;71.20
25232;BME280;13176;51.140;6.290;2023-02-10T01:55:13;102927.97;;;7.62;71.30
25232;BME280;13176;51.140;6.290;2023-02-10T01:57:43;102867.22;;;7.34;70.77
25232;BME280;13176;51.140;6.290;2023-02-10T02:00:11;102899.03;;;7.52;70.89
25232;BME280;13176;51.140;6.290;2023-02-10T02:02:39;102888.75;;;7.55;70.92
25232;BME280;13176;51.140;6.290;2023-02-10T02:05:18;102832.97;;;7.19;70.41
25232;BME280;13176;51.140;6.290;2023-02-10T02:07:45;102914.03;;;7.60;70.68
25232;BME280;13176;51.140;6.290;2023-02-10T02:10:14;102935.28;;;7.74;70.61
25232;BME280;13176;51.140;6.290;2023-02-10T02:12:48;102944.94;;;7.78;70.36
25232;BME280;13176;51.140;6.290;2023-02-10T02:15:33;102893.66;;;7.47;70.68
25232;BME280;13176;51.140;6.290;2023-02-10T02:18:15;102935.44;;;7.78;70.36
25232;BME280;13176;51.140;6.290;2023-02-10T02:21:07;102946.59;;;7.76;70.04
25232;BME280;13176;51.140;6.290;2023-02-10T02:24:05;102934.88;;;7.62;70.10
25232;BME280;13176;51.140;6.290;2023-02-10T02:29:40;102899.50;;;7.40;70.04
25232;BME280;13176;51.140;6.290;2023-02-10T02:32:22;102950.41;;;7.60;70.73
25232;BME280;13176;51.140;6.290;2023-02-10T02:35:23;102942.13;;;7.47;70.63
25232;BME280;13176;51.140;6.290;2023-02-10T02:37:52;102911.09;;;7.26;70.79
25232;BME280;13176;51.140;6.290;2023-02-10T02:40:20;102935.91;;;7.42;70.86
25232;BME280;13176;51.140;6.290;2023-02-10T02:42:47;102943.00;;;7.47;70.43
25232;BME280;13176;51.140;6.290;2023-02-10T02:45:19;102950.28;;;7.57;70.17
25232;BME280;13176;51.140;6.290;2023-02-10T02:47:56;102944.63;;;7.44;70.57
25232;BME280;13176;51.140;6.290;2023-02-10T02:51:04;102906.53;;;7.19;70.45
25232;BME280;13176;51.140;6.290;2023-02-10T02:53:54;102962.69;;;7.41;71.06
25232;BME280;13176;51.140;6.290;2023-02-10T02:56:45;102951.84;;;7.29;70.82
25232;BME280;13176;51.140;6.290;2023-02-10T02:59:31;102940.84;;;7.11;70.80
25232;BME280;13176;51.140;6.290;2023-02-10T03:02:01;102948.38;;;7.05;71.20
25232;BME280;13176;51.140;6.290;2023-02-10T03:04:31;102958.28;;;7.15;71.06
25232;BME280;13176;51.140;6.290;2023-02-10T03:07:01;102891.81;;;6.72;70.94
25232;BME280;13176;51.140;6.290;2023-02-10T03:09:28;102907.88;;;6.85;70.76
25232;BME280;13176;51.140;6.290;2023-02-10T03:11:54;102825.84;;;6.65;69.77
25232;BME280;13176;51.140;6.290;2023-02-10T03:14:21;102857.91;;;6.90;69.63
25232;BME280;13176;51.140;6.290;2023-02-10T03:16:48;102879.75;;;6.97;70.19
25232;BME280;13176;51.140;6.290;2023-02-10T03:19:14;102825.88;;;6.43;70.85
25232;BME280;13176;51.140;6.290;2023-02-10T03:21:41;102928.69;;;7.10;71.02
25232;BME280;13176;51.140;6.290;2023-02-10T03:24:07;102933.75;;;7.07;71.59
25232;BME280;13176;51.140;6.290;2023-02-10T03:26:36;102917.63;;;7.15;71.03
25232;BME280;13176;51.140;6.290;2023-02-10T03:29:03;102908.47;;;7.25;70.57
25232;BME280;13176;51.140;6.290;2023-02-10T03:31:30;102868.72;;;7.02;70.26
25232;BME280;13176;51.140;6.290;2023-02-10T03:33:56;102837.25;;;6.70;70.10
25232;BME280;13176;51.140;6.290;2023-02-10T03:36:23;102834.50;;;6.66;70.36
25232;BME280;13176;51.140;6.290;2023-02-10T03:38:49;102872.81;;;6.73;70.06
25232;BME280;13176;51.140;6.290;2023-02-10T03:41:16;102908.34;;;6.75;70.39
25232;BME280;13176;51.140;6.290;2023-02-10T03:43:42;102886.56;;;6.48;71.06
25232;BME280;13176;51.140;6.290;2023-02-10T03:46:09;102887.41;;;6.47;71.39
25232;BME280;13176;51.140;6.290;2023-02-10T03:48:36;102922.50;;;6.61;71.47
25232;BME280;13176;51.140;6.290;2023-02-10T03:51:05;102875.63;;;6.33;71.43
25232;BME280;13176;51.140;6.290;2023-02-10T03:53:32;102829.44;;;6.01;71.67
25232;BME280;13176;51.140;6.290;2023-02-10T03:55:59;102889.84;;;6.22;70.92
25232;BME280;13176;51.140;6.290;2023-02-10T03:58:25;102939.88;;;6.42;72.04
25232;BME280;13176;51.140;6.290;2023-02-10T04:00:52;102933.59;;;6.35;71.92
25232;BME280;13176;51.140;6.290;2023-02-10T04:03:18;102923.09;;;6.10;72.00
25232;BME280;13176;51.140;6.290;2023-02-10T04:05:45;102892.44;;;6.00;71.63
25232;BME280;13176;51.140;6.290;2023-02-10T04:08:12;102949.72;;;6.28;71.70
25232;BME280;13176;51.140;6.290;2023-02-10T04:10:38;102884.16;;;5.88;71.86
25232;BME280;13176;51.140;6.290;2023-02-10T04:13:04;102800.56;;;5.30;71.78
25232;BME280;13176;51.140;6.290;2023-02-10T04:15:31;102932.81;;;5.95;72.09
25232;BME280;13176;51.140;6.290;2023-02-10T04:17:57;102908.38;;;5.89;71.85
25232;BME280;13176;51.140;6.290;2023-02-10T04:20:24;102973.00;;;6.27;71.55
25232;BME280;13176;51.140;6.290;2023-02-10T04:22:51;102940.97;;;6.04;70.74
25232;BME280;13176;51.140;6.290;2023-02-10T04:25:17;102909.84;;;5.82;71.23
25232;BME280;13176;51.140;6.290;2023-02-10T04:27:44;102943.06;;;5.92;70.88
25232;BME280;13176;51.140;6.290;2023-02-10T04:30:10;102958.72;;;5.95;71.48
25232;BME280;13176;51.140;6.290;2023-02-10T04:32:37;102950.91;;;5.94;71.37
25232;BME280;13176;51.140;6.290;2023-02-10T04:35:03;102846.97;;;5.25;70.37
25232;BME280;13176;51.140;6.290;2023-02-10T04:37:30;102926.47;;;5.68;70.43
25232;BME280;13176;51.140;6.290;2023-02-10T04:39:56;102947.13;;;5.67;69.93
25232;BME280;13176;51.140;6.290;2023-02-10T04:42:22;102909.44;;;5.34;70.35
25232;BME280;13176;51.140;6.290;2023-02-10T04:44:57;102948.94;;;5.49;70.82
25232;BME280;13176;51.140;6.290;2023-02-10T04:47:27;102893.47;;;5.24;70.53
25232;BME280;13176;51.140;6.290;2023-02-10T04:49:54;102978.13;;;5.65;70.80
25232;BME280;13176;51.140;6.290;2023-02-10T04:52:21;102977.19;;;5.63;70.68
25232;BME280;13176;51.140;6.290;2023-02-10T04:54:47;102925.19;;;5.39;71.39
25232;BME280;13176;51.140;6.290;2023-02-10T04:57:14;102938.78;;;5.54;70.48
25232;BME280;13176;51.140;6.290;2023-02-10T04:59:40;102961.84;;;5.68;71.87
25232;BME280;13176;51.140;6.290;2023-02-10T05:02:07;102938.75;;;5.72;71.75
25232;BME280;13176;51.140;6.290;2023-02-10T05:04:33;102963.53;;;5.86;71.28
25232;BME280;13176;51.140;6.290;2023-02-10T05:06:59;102947.94;;;5.85;71.23
25232;BME280;13176;51.140;6.290;2023-02-10T05:09:26;102844.00;;;5.37;71.04
25232;BME280;13176;51.140;6.290;2023-02-10T05:11:53;102927.03;;;5.80;71.18
25232;BME280;13176;51.140;6.290;2023-02-10T05:14:19;102937.41;;;5.80;71.88
25232;BME280;13176;51.140;6.290;2023-02-10T05:16:46;102828.88;;;5.25;71.51
25232;BME280;13176;51.140;6.290;2023-02-10T05:19:12;102944.44;;;5.84;71.36
25232;BME280;13176;51.140;6.290;2023-02-10T05:21:39;102942.56;;;5.80;71.34
25232;BME280;13176;51.140;6.290;2023-02-10T05:24:05;102935.34;;;5.73;71.63
25232;BME280;13176;51.140;6.290;2023-02-10T05:26:32;102988.88;;;5.93;72.49
25232;BME280;13176;51.140;6.290;2023-02-10T05:28:58;102930.72;;;5.66;72.46
25232;BME280;13176;51.140;6.290;2023-02-10T05:31:25;102936.28;;;5.75;72.64
25232;BME280;13176;51.140;6.290;2023-02-10T05:33:51;102975.66;;;5.87;72.41
25232;BME280;13176;51.140;6.290;2023-02-10T05:36:20;102957.38;;;5.84;73.03
25232;BME280;13176;51.140;6.290;2023-02-10T05:38:48;102821.91;;;5.04;72.55
25232;BME280;13176;51.140;6.290;2023-02-10T05:41:33;102878.06;;;5.27;73.06
25232;BME280;13176;51.140;6.290;2023-02-10T05:44:01;102811.28;;;4.98;72.70
25232;BME280;13176;51.140;6.290;2023-02-10T05:46:28;102935.34;;;5.73;72.37
25232;BME280;13176;51.140;6.290;2023-02-10T05:48:54;102830.84;;;5.12;71.80
25232;BME280;13176;51.140;6.290;2023-02-10T05:51:21;102966.69;;;5.79;72.16
25232;BME280;13176;51.140;6.290;2023-02-10T05:53:47;102871.00;;;5.23;72.67
25232;BME280;13176;51.140;6.290;2023-02-10T05:56:13;102863.44;;;5.07;72.91
25232;BME280;13176;51.140;6.290;2023-02-10T05:58:40;102861.78;;;5.09;72.65
25232;BME280;13176;51.140;6.290;2023-02-10T06:01:09;102991.88;;;5.83;73.05
25232;BME280;13176;51.140;6.290;2023-02-10T06:03:36;102854.31;;;4.96;72.75
25232;BME280;13176;51.140;6.290;2023-02-10T06:06:03;102984.00;;;5.80;73.20
25232;BME280;13176;51.140;6.290;2023-02-10T06:08:29;102812.25;;;4.81;72.64
25232;BME280;13176;51.140;6.290;2023-02-10T06:10:56;102891.56;;;5.20;72.55
25232;BME280;13176;51.140;6.290;2023-02-10T06:13:22;102943.13;;;5.55;72.83
25232;BME280;13176;51.140;6.290;2023-02-10T06:15:49;102853.50;;;4.97;72.48
25232;BME280;13176;51.140;6.290;2023-02-10T06:18:16;102998.72;;;5.81;72.71
25232;BME280;13176;51.140;6.290;2023-02-10T06:20:45;103007.19;;;5.77;72.77
25232;BME280;13176;51.140;6.290;2023-02-10T06:23:12;102940.84;;;5.42;72.97
25232;BME280;13176;51.140;6.290;2023-02-10T06:25:39;102879.91;;;5.09;72.61
25232;BME280;13176;51.140;6.290;2023-02-10T06:28:05;102809.34;;;4.73;72.34
25232;BME280;13176;51.140;6.290;2023-02-10T06:30:32;102895.97;;;5.02;72.58
25232;BME280;13176;51.140;6.290;2023-02-10T06:33:02;102809.69;;;4.43;72.82
25232;BME280;13176;51.140;6.290;2023-02-10T06:35:33;102907.94;;;5.00;72.94
25232;BME280;13176;51.140;6.290;2023-02-10T06:38:03;102971.50;;;5.33;73.39
25232;BME280;13176;51.140;6.290;2023-02-10T06:40:29;102929.72;;;4.86;74.19
25232;BME280;13176;51.140;6.290;2023-02-10T06:42:56;103014.81;;;5.37;74.43
25232;BME280;13176;51.140;6.290;2023-02-10T06:45:25;102893.97;;;4.77;73.97
25232;BME280;13176;51.140;6.290;2023-02-10T06:47:55;102875.72;;;4.55;73.78
25232;BME280;13176;51.140;6.290;2023-02-10T06:50:21;103021.91;;;5.41;73.64
25232;BME280;13176;51.140;6.290;2023-02-10T06:52:48;102871.88;;;4.65;73.49
25232;BME280;13176;51.140;6.290;2023-02-10T06:55:15;102877.31;;;4.71;73.41
25232;BME280;13176;51.140;6.290;2023-02-10T06:57:41;102909.56;;;4.98;73.41
25232;BME280;13176;51.140;6.290;2023-02-10T07:00:13;103017.78;;;5.64;73.16
25232;BME280;13176;51.140;6.290;2023-02-10T07:02:40;102996.41;;;5.50;72.42
25232;BME280;13176;51.140;6.290;2023-02-10T07:05:07;102993.94;;;5.53;72.13
25232;BME280;13176;51.140;6.290;2023-02-10T07:07:35;103014.66;;;5.71;72.30
25232;BME280;13176;51.140;6.290;2023-02-10T07:10:02;103022.34;;;5.70;72.48
25232;BME280;13176;51.140;6.290;2023-02-10T07:12:29;103010.47;;;5.75;72.65
25232;BME280;13176;51.140;6.290;2023-02-10T07:14:56;102951.22;;;5.42;72.18
25232;BME280;13176;51.140;6.290;2023-02-10T07:17:23;102856.56;;;4.88;71.97
25232;BME280;13176;51.140;6.290;2023-02-10T07:19:49;102994.25;;;5.77;71.99
25232;BME280;13176;51.140;6.290;2023-02-10T07:22:15;102972.69;;;5.59;71.81
25232;BME280;13176;51.140;6.290;2023-02-10T07:24:42;103009.47;;;5.71;72.18
25232;BME280;13176;51.140;6.290;2023-02-10T07:27:08;102947.41;;;5.34;72.50
25232;BME280;13176;51.140;6.290;2023-02-10T07:29:35;102899.63;;;5.07;72.81
25232;BME280;13176;51.140;6.290;2023-02-10T07:32:12;102947.13;;;5.28;72.78
25232;BME280;13176;51.140;6.290;2023-02-10T07:34:39;102987.13;;;5.55;72.58
25232;BME280;13176;51.140;6.290;2023-02-10T07:37:07;103007.31;;;5.61;72.84
25232;BME280;13176;51.140;6.290;2023-02-10T07:39:34;102888.88;;;4.98;72.87
25232;BME280;13176;51.140;6.290;2023-02-10T07:42:05;102859.59;;;4.80;73.65
25232;BME280;13176;51.140;6.290;2023-02-10T07:44:32;103004.31;;;5.71;73.45
25232;BME280;13176;51.140;6.290;2023-02-10T07:46:58;103008.16;;;5.79;72.80
25232;BME280;13176;51.140;6.290;2023-02-10T07:49:25;103018.00;;;5.88;72.87
25232;BME280;13176;51.140;6.290;2023-02-10T07:51:53;102799.63;;;4.68;73.13
25232;BME280;13176;51.140;6.290;2023-02-10T07:54:20;102880.81;;;4.90;73.34
25232;BME280;13176;51.140;6.290;2023-02-10T07:56:47;103044.47;;;6.01;73.32
25232;BME280;13176;51.140;6.290;2023-02-10T07:59:16;102886.88;;;5.11;73.58
25232;BME280;13176;51.140;6.290;2023-02-10T08:01:44;103024.63;;;6.02;73.26
25232;BME280;13176;51.140;6.290;2023-02-10T08:04:12;102985.88;;;5.84;73.45
25232;BME280;13176;51.140;6.290;2023-02-10T08:06:39;102930.75;;;5.48;73.75
25232;BME280;13176;51.140;6.290;2023-02-10T08:09:06;102997.28;;;5.88;73.42
25232;BME280;13176;51.140;6.290;2023-02-10T08:11:33;103020.53;;;6.07;73.54
25232;BME280;13176;51.140;6.290;2023-02-10T08:14:01;103045.19;;;6.18;74.20
25232;BME280;13176;51.140;6.290;2023-02-10T08:16:28;103060.47;;;6.32;74.35
25232;BME280;13176;51.140;6.290;2023-02-10T08:18:54;103010.81;;;6.22;74.11
25232;BME280;13176;51.140;6.290;2023-02-10T08:21:24;103027.72;;;6.34;74.08
25232;BME280;13176;51.140;6.290;2023-02-10T08:23:51;103047.59;;;6.34;74.36
25232;BME280;13176;51.140;6.290;2023-02-10T08:26:23;102920.94;;;5.80;74.26
25232;BME280;13176;51.140;6.290;2023-02-10T08:28:50;103013.06;;;6.55;74.09
25232;BME280;13176;51.140;6.290;2023-02-10T08:31:17;103056.56;;;7.06;73.11
25232;BME280;13176;51.140;6.290;2023-02-10T08:33:44;103032.63;;;7.13;73.17
25232;BME280;13176;51.140;6.290;2023-02-10T08:36:15;103019.41;;;7.07;72.85
25232;BME280;13176;51.140;6.290;2023-02-10T08:38:42;103042.06;;;7.11;73.00
25232;BME280;13176;51.140;6.290;2023-02-10T08:41:09;103015.88;;;7.05;72.71
25232;BME280;13176;51.140;6.290;2023-02-10T08:43:35;103064.00;;;7.19;73.58
25232;BME280;13176;51.140;6.290;2023-02-10T08:46:02;103051.06;;;7.42;72.47
25232;BME280;13176;51.140;6.290;2023-02-10T08:48:29;103038.28;;;7.03;73.01
25232;BME280;13176;51.140;6.290;2023-02-10T08:50:57;102928.50;;;6.82;72.55
25232;BME280;13176;51.140;6.290;2023-02-10T08:53:23;103012.63;;;7.34;72.53
25232;BME280;13176;51.140;6.290;2023-02-10T08:56:01;103001.66;;;7.41;72.00
25232;BME280;13176;51.140;6.290;2023-02-10T08:58:28;103005.66;;;7.33;72.34
25232;BME280;13176;51.140;6.290;2023-02-10T09:00:55;103014.00;;;7.46;72.22
25232;BME280;13176;51.140;6.290;2023-02-10T09:03:22;103058.44;;;7.79;71.92
25232;BME280;13176;51.140;6.290;2023-02-10T09:05:49;103009.66;;;7.47;72.61
25232;BME280;13176;51.140;6.290;2023-02-10T09:08:16;103065.31;;;7.77;72.98
25232;BME280;13176;51.140;6.290;2023-02-10T09:10:45;103071.66;;;7.85;72.85
25232;BME280;13176;51.140;6.290;2023-02-10T09:13:11;103017.25;;;7.66;72.92
25232;BME280;13176;51.140;6.290;2023-02-10T09:15:39;103030.59;;;7.75;73.17
25232;BME280;13176;51.140;6.290;2023-02-10T09:18:07;102958.06;;;7.32;72.58
25232;BME280;13176;51.140;6.290;2023-02-10T09:20:34;102942.72;;;7.38;73.07
25232;BME280;13176;51.140;6.290;2023-02-10T09:23:01;103056.16;;;8.11;73.08
25232;BME280;13176;51.140;6.290;2023-02-10T09:25:28;102910.97;;;7.22;73.02
25232;BME280;13176;51.140;6.290;2023-02-10T09:27:55;103024.06;;;7.86;72.71
25232;BME280;13176;51.140;6.290;2023-02-10T09:30:24;103076.63;;;8.02;73.31
25232;BME280;13176;51.140;6.290;2023-02-10T09:32:51;103036.31;;;7.89;72.92
25232;BME280;13176;51.140;6.290;2023-02-10T09:35:20;103016.31;;;8.12;72.00
25232;BME280;13176;51.140;6.290;2023-02-10T09:37:46;103067.38;;;8.33;71.31
25232;BME280;13176;51.140;6.290;2023-02-10T09:40:33;103074.28;;;8.59;71.49
25232;BME280;13176;51.140;6.290;2023-02-10T09:45:47;102967.81;;;7.88;71.14
25232;BME280;13176;51.140;6.290;2023-02-10T09:48:38;103082.00;;;8.56;71.31
25232;BME280;13176;51.140;6.290;2023-02-10T09:53:52;103016.47;;;7.91;72.13
25232;BME280;13176;51.140;6.290;2023-02-10T09:56:20;103059.56;;;8.33;72.04
25232;BME280;13176;51.140;6.290;2023-02-10T09:58:55;102991.09;;;8.09;71.13
25232;BME280;13176;51.140;6.290;2023-02-10T10:01:29;103029.84;;;8.27;71.36
25232;BME280;13176;51.140;6.290;2023-02-10T10:04:04;103055.38;;;8.38;71.77
25232;BME280;13176;51.140;6.290;2023-02-10T10:06:35;102949.63;;;7.63;71.86
25232;BME280;13176;51.140;6.290;2023-02-10T10:09:37;103057.22;;;8.42;70.84
25232;BME280;13176;51.140;6.290;2023-02-10T10:12:04;103059.63;;;8.61;70.94
25232;BME280;13176;51.140;6.290;2023-02-10T10:14:36;103056.50;;;8.99;69.41
25232;BME280;13176;51.140;6.290;2023-02-10T10:28:55;103073.78;;;8.97;69.48
25232;BME280;13176;51.140;6.290;2023-02-10T10:31:34;103009.09;;;9.10;68.16
25232;BME280;13176;51.140;6.290;2023-02-10T10:34:13;103080.06;;;9.03;68.79
25232;BME280;13176;51.140;6.290;2023-02-10T10:36:46;103088.22;;;9.73;67.51
25232;BME280;13176;51.140;6.290;2023-02-10T10:41:44;103048.63;;;10.87;62.53
25232;BME280;13176;51.140;6.290;2023-02-10T10:44:16;103057.22;;;13.08;55.74
25232;BME280;13176;51.140;6.290;2023-02-10T10:46:49;103054.88;;;14.04;51.61
25232;BME280;13176;51.140;6.290;2023-02-10T10:49:17;102969.44;;;14.38;49.14
25232;BME280;13176;51.140;6.290;2023-02-10T10:51:48;103022.78;;;15.77;46.33
25232;BME280;13176;51.140;6.290;2023-02-10T10:54:22;103029.84;;;16.00;45.75
25232;BME280;13176;51.140;6.290;2023-02-10T10:57:04;103058.84;;;16.07;45.00
25232;BME280;13176;51.140;6.290;2023-02-10T10:59:39;103063.25;;;16.25;45.24
25232;BME280;13176;51.140;6.290;2023-02-10T11:02:19;103054.44;;;16.17;44.00
25232;BME280;13176;51.140;6.290;2023-02-10T11:05:03;103018.44;;;16.26;43.31
25232;BME280;13176;51.140;6.290;2023-02-10T11:19:00;103018.28;;;15.52;45.04
25232;BME280;13176;51.140;6.290;2023-02-10T11:21:58;103039.59;;;16.37;43.91
25232;BME280;13176;51.140;6.290;2023-02-10T11:24:33;102870.81;;;15.04;44.12
25232;BME280;13176;51.140;6.290;2023-02-10T11:27:12;102965.72;;;15.77;43.87
25232;BME280;13176;51.140;6.290;2023-02-10T11:33:30;103013.91;;;15.49;45.32
25232;BME280;13176;51.140;6.290;2023-02-10T11:36:08;103032.53;;;16.34;43.28
25232;BME280;13176;51.140;6.290;2023-02-10T11:38:39;102924.31;;;15.16;44.40
25232;BME280;13176;51.140;6.290;2023-02-10T11:41:14;102937.63;;;15.61;43.79
25232;BME280;13176;51.140;6.290;2023-02-10T11:43:46;102982.44;;;15.91;43.79
25232;BME280;13176;51.140;6.290;2023-02-10T11:52:51;103024.50;;;15.70;44.54
25232;BME280;13176;51.140;6.290;2023-02-10T11:59:03;103002.56;;;15.59;44.64
25232;BME280;13176;51.140;6.290;2023-02-10T12:04:28;102997.66;;;14.61;45.70
25232;BME280;13176;51.140;6.290;2023-02-10T12:07:31;102956.25;;;14.30;46.79
25232;BME280;13176;51.140;6.290;2023-02-10T12:15:47;102961.59;;;12.83;50.87
25232;BME280;13176;51.140;6.290;2023-02-10T12:23:54;102973.06;;;12.31;49.97
25232;BME280;13176;51.140;6.290;2023-02-10T12:26:46;102966.97;;;12.32;50.31
25232;BME280;13176;51.140;6.290;2023-02-10T12:32:44;102983.59;;;12.35;50.49
25232;BME280;13176;51.140;6.290;2023-02-10T12:48:43;102928.97;;;12.60;48.99
25232;BME280;13176;51.140;6.290;2023-02-10T12:51:34;102953.66;;;12.74;49.07
25232;BME280;13176;51.140;6.290;2023-02-10T12:54:17;102944.16;;;12.85;49.71
25232;BME280;13176;51.140;6.290;2023-02-10T12:57:08;102947.22;;;12.54;49.03
25232;BME280;13176;51.140;6.290;2023-02-10T13:05:22;102933.47;;;12.13;51.00
25232;BME280;13176;51.140;6.290;2023-02-10T13:07:53;102853.84;;;11.96;50.29
25232;BME280;13176;51.140;6.290;2023-02-10T13:10:43;102860.00;;;11.98;50.01
25232;BME280;13176;51.140;6.290;2023-02-10T13:13:18;102826.53;;;11.79;50.31
25232;BME280;13176;51.140;6.290;2023-02-10T13:15:48;102931.59;;;12.60;50.33
25232;BME280;13176;51.140;6.290;2023-02-10T13:18:21;102818.91;;;11.91;50.42
25232;BME280;13176;51.140;6.290;2023-02-10T13:21:06;102868.25;;;12.26;49.72
25232;BME280;13176;51.140;6.290;2023-02-10T13:23:43;102850.34;;;11.94;49.50
25232;BME280;13176;51.140;6.290;2023-02-10T13:27:04;102914.41;;;12.20;49.92
25232;BME280;13176;51.140;6.290;2023-02-10T13:34:47;102927.00;;;12.45;50.43
25232;BME280;13176;51.140;6.290;2023-02-10T13:37:19;102760.09;;;11.65;49.82
25232;BME280;13176;51.140;6.290;2023-02-10T13:39:59;102839.59;;;12.34;49.57
25232;BME280;13176;51.140;6.290;2023-02-10T13:42:36;102798.53;;;11.72;50.06
25232;BME280;13176;51.140;6.290;2023-02-10T13:47:43;102801.63;;;12.05;50.11
25232;BME280;13176;51.140;6.290;2023-02-10T13:53:04;102890.66;;;12.65;50.64
25232;BME280;13176;51.140;6.290;2023-02-10T14:00:48;102902.28;;;12.88;49.67
25232;BME280;13176;51.140;6.290;2023-02-10T14:08:43;102748.78;;;12.30;49.19
25232;BME280;13176;51.140;6.290;2023-02-10T14:11:35;102883.69;;;12.67;49.24
25232;BME280;13176;51.140;6.290;2023-02-10T14:14:26;102866.03;;;12.53;48.93
25232;BME280;13176;51.140;6.290;2023-02-10T14:17:06;102880.72;;;12.42;49.71
25232;BME280;13176;51.140;6.290;2023-02-10T14:19:36;102857.16;;;12.44;50.24
25232;BME280;13176;51.140;6.290;2023-02-10T14:22:05;102874.88;;;12.62;48.90
25232;BME280;13176;51.140;6.290;2023-02-10T14:24:42;102840.88;;;12.65;48.83
25232;BME280;13176;51.140;6.290;2023-02-10T14:27:17;102890.41;;;13.17;48.17
25232;BME280;13176;51.140;6.290;2023-02-10T14:29:54;102854.22;;;12.86;48.14
25232;BME280;13176;51.140;6.290;2023-02-10T14:32:21;102895.47;;;12.39;49.40
25232;BME280;13176;51.140;6.290;2023-02-10T14:35:15;102897.06;;;12.90;49.15
25232;BME280;13176;51.140;6.290;2023-02-10T14:37:57;102858.44;;;12.74;49.88
25232;BME280;13176;51.140;6.290;2023-02-10T14:40:27;102873.22;;;12.67;49.67
25232;BME280;13176;51.140;6.290;2023-02-10T14:42:54;102893.31;;;12.68;49.98
25232;BME280;13176;51.140;6.290;2023-02-10T14:45:26;102878.53;;;12.76;49.64
25232;BME280;13176;51.140;6.290;2023-02-10T14:47:55;102888.56;;;12.44;50.96
25232;BME280;13176;51.140;6.290;2023-02-10T14:50:35;102872.00;;;12.43;50.47
25232;BME280;13176;51.140;6.290;2023-02-10T14:53:03;102852.28;;;12.08;51.15
25232;BME280;13176;51.140;6.290;2023-02-10T14:55:37;102725.94;;;11.56;51.16
25232;BME280;13176;51.140;6.290;2023-02-10T14:58:10;102878.56;;;12.79;50.63
25232;BME280;13176;51.140;6.290;2023-02-10T15:00:39;102754.50;;;12.02;50.21
25232;BME280;13176;51.140;6.290;2023-02-10T15:03:11;102761.91;;;11.72;51.04